TAF and METAR

METAR for In Salah Airport

DAUI 270400Z 36004KT CAVOK 16/M07 Q1017
Report created 27. februar 2020 05:00
wind 4 knots from N (360°) Clear sky Temperature 16° with dewpoint at -7° (Humidity 19.93%) Pressure 1017 hPa

TAF for In Salah Airport

TAF DAUI 262300Z 2700/2724 36010KT CAVOK
Report created 27. februar 2020 00:00

between 27. februar 2020 01:00 - 27. februar 2020 01:00

wind 10 knots from N (360°) Clear sky